createdAt,value
2019-04-28T00:02:18.149Z,72.68
2019-04-28T00:04:48.727Z,72.87
2019-04-28T00:07:19.302Z,73.11
2019-04-28T00:09:51.121Z,73.20
2019-04-28T00:12:22.960Z,73.32
2019-04-28T00:14:53.827Z,73.51
2019-04-28T00:17:25.060Z,73.64
2019-04-28T00:19:57.527Z,73.73
2019-04-28T00:22:51.503Z,73.85
2019-04-28T00:25:28.409Z,73.92
2019-04-28T00:27:59.202Z,74.04
2019-04-28T00:30:31.710Z,74.13
2019-04-28T00:33:02.509Z,74.21
2019-04-28T00:35:41.833Z,74.25
2019-04-28T00:38:11.517Z,74.40
2019-04-28T00:40:42.444Z,74.40
2019-04-28T00:43:15.524Z,74.42
2019-04-28T00:45:48.895Z,74.46
2019-04-28T00:48:20.922Z,74.50
2019-04-28T00:50:52.868Z,74.30
2019-04-28T00:53:24.006Z,74.07
2019-04-28T00:56:03.961Z,73.94
2019-04-28T00:58:35.014Z,73.99
2019-04-28T01:01:09.229Z,74.06
2019-04-28T01:03:41.763Z,74.24
2019-04-28T01:06:14.067Z,74.46
2019-04-28T01:08:44.805Z,74.53
2019-04-28T01:11:15.798Z,74.69
2019-04-28T01:13:57.028Z,74.79
2019-04-28T01:16:42.090Z,74.87
2019-04-28T01:19:25.962Z,74.90
2019-04-28T01:22:16.723Z,75.01
2019-04-28T01:24:49.554Z,75.10
2019-04-28T01:27:41.913Z,75.09
2019-04-28T01:30:21.103Z,75.10
2019-04-28T01:33:06.787Z,75.14
2019-04-28T01:35:39.177Z,75.21
2019-04-28T01:38:09.931Z,75.21
2019-04-28T01:40:42.136Z,75.32
2019-04-28T01:43:12.744Z,75.45
2019-04-28T01:45:43.734Z,75.47
2019-04-28T01:48:16.058Z,75.46
2019-04-28T01:50:59.798Z,75.52
2019-04-28T01:53:30.959Z,75.63
2019-04-28T01:56:01.759Z,75.62
2019-04-28T01:58:32.387Z,75.57
2019-04-28T02:01:03.092Z,75.61
2019-04-28T02:03:34.188Z,75.60
2019-04-28T02:06:04.774Z,75.65
2019-04-28T02:08:35.384Z,75.67
2019-04-28T02:11:19.822Z,75.77
2019-04-28T02:13:50.422Z,75.61
2019-04-28T02:16:20.853Z,75.60
2019-04-28T02:18:52.680Z,75.62
2019-04-28T02:21:39.633Z,75.72
2019-04-28T02:24:27.543Z,75.71
2019-04-28T02:27:00.631Z,75.79
2019-04-28T02:29:32.616Z,75.80
2019-04-28T02:32:04.878Z,75.85
2019-04-28T02:34:35.481Z,75.90
2019-04-28T02:37:07.243Z,75.95
2019-04-28T02:39:37.641Z,76.03
2019-04-28T02:42:10.955Z,76.04
2019-04-28T02:44:41.673Z,76.02
2019-04-28T02:47:11.993Z,76.00
2019-04-28T02:49:54.097Z,76.09
2019-04-28T02:52:42.274Z,76.00
2019-04-28T02:55:12.662Z,76.05
2019-04-28T02:57:51.625Z,76.10
2019-04-28T03:00:24.537Z,76.19
2019-04-28T03:02:55.135Z,76.18
2019-04-28T03:05:25.720Z,76.34
2019-04-28T03:07:56.360Z,76.42
2019-04-28T03:10:27.137Z,76.60
2019-04-28T03:12:57.460Z,76.66
2019-04-28T03:15:30.185Z,76.82
2019-04-28T03:18:07.826Z,76.80
2019-04-28T03:20:38.341Z,76.94
2019-04-28T03:23:12.284Z,77.08
2019-04-28T03:25:56.700Z,77.08
2019-04-28T03:29:00.961Z,77.07
2019-04-28T03:32:15.604Z,77.10
2019-04-28T03:34:23.610Z,77.19
2019-04-28T03:36:54.356Z,77.17
2019-04-28T03:39:42.499Z,77.11
2019-04-28T03:42:12.840Z,77.14
2019-04-28T03:44:43.202Z,77.20
2019-04-28T03:47:13.756Z,77.21
2019-04-28T03:49:44.366Z,77.33
2019-04-28T03:52:15.157Z,77.32
2019-04-28T03:54:52.032Z,77.58
2019-04-28T03:57:31.879Z,77.71
2019-04-28T04:00:02.690Z,77.63
2019-04-28T04:02:33.002Z,77.54
2019-04-28T04:05:04.085Z,77.60
2019-04-28T04:07:34.507Z,77.61
2019-04-28T04:10:11.495Z,77.65
2019-04-28T04:13:01.697Z,77.67
2019-04-28T04:15:53.515Z,77.72
2019-04-28T04:18:27.562Z,77.60
2019-04-28T04:21:00.628Z,77.72
2019-04-28T04:23:30.932Z,77.76
2019-04-28T04:26:12.215Z,77.79
2019-04-28T04:28:42.662Z,77.92
2019-04-28T04:31:13.369Z,77.95
2019-04-28T04:33:45.363Z,77.87
2019-04-28T04:36:15.827Z,77.86
2019-04-28T04:38:46.585Z,77.91
2019-04-28T04:41:17.116Z,77.89
2019-04-28T04:43:47.520Z,77.82
2019-04-28T04:46:26.731Z,77.90
2019-04-28T04:48:57.098Z,77.92
2019-04-28T04:51:30.656Z,77.87
2019-04-28T04:54:01.079Z,77.96
2019-04-28T04:56:31.938Z,77.95
2019-04-28T04:59:02.941Z,77.94
2019-04-28T05:02:01.726Z,77.92
2019-04-28T05:04:50.974Z,77.81
2019-04-28T05:07:21.442Z,77.76
2019-04-28T05:09:52.097Z,77.62
2019-04-28T05:12:22.862Z,77.59
2019-04-28T05:15:04.314Z,77.59
2019-04-28T05:17:34.905Z,77.58
2019-04-28T05:20:05.657Z,77.60
2019-04-28T05:22:42.729Z,77.61
2019-04-28T05:25:30.861Z,77.61
2019-04-28T05:28:11.579Z,77.64
2019-04-28T05:30:55.941Z,77.62
2019-04-28T05:33:30.590Z,77.58
2019-04-28T05:36:02.973Z,77.61
2019-04-28T05:38:32.151Z,77.53
2019-04-28T05:41:13.347Z,77.53
2019-04-28T05:43:42.531Z,77.46
2019-04-28T05:46:16.262Z,77.30
2019-04-28T05:48:54.006Z,77.19
2019-04-28T05:51:26.171Z,76.98
2019-04-28T05:54:04.048Z,76.79
2019-04-28T05:56:53.567Z,76.57
2019-04-28T06:00:03.640Z,76.28
2019-04-28T06:02:53.551Z,76.10
2019-04-28T06:05:10.888Z,75.88
2019-04-28T06:08:03.540Z,75.76
2019-04-28T06:10:34.231Z,75.60
2019-04-28T06:13:04.791Z,75.35
2019-04-28T06:15:35.815Z,75.12
2019-04-28T06:18:16.948Z,74.97
2019-04-28T06:20:49.661Z,74.82
2019-04-28T06:23:20.164Z,74.74
2019-04-28T06:25:53.837Z,74.60
2019-04-28T06:28:26.897Z,74.50
2019-04-28T06:31:00.060Z,74.47
2019-04-28T06:33:31.928Z,74.36
2019-04-28T06:36:11.386Z,74.35
2019-04-28T06:38:41.637Z,74.25
2019-04-28T06:41:12.542Z,74.21
2019-04-28T06:43:45.041Z,74.12
2019-04-28T06:46:15.783Z,73.87
2019-04-28T06:48:46.157Z,73.65
2019-04-28T06:51:18.298Z,73.33
2019-04-28T06:54:01.938Z,73.15
2019-04-28T06:56:26.865Z,72.99
2019-04-28T06:58:59.094Z,72.76
2019-04-28T07:01:33.123Z,72.52
2019-04-28T07:04:03.633Z,72.25
2019-04-28T07:06:34.250Z,71.96
2019-04-28T07:09:06.334Z,71.81
2019-04-28T07:11:36.800Z,71.73
2019-04-28T07:14:07.306Z,71.68
2019-04-28T07:16:51.463Z,71.59
2019-04-28T07:19:24.419Z,71.46
2019-04-28T07:22:00.529Z,71.27
2019-04-28T07:24:31.028Z,71.08
2019-04-28T07:27:01.668Z,70.81
2019-04-28T07:29:33.282Z,70.54
2019-04-28T07:32:17.948Z,70.04
2019-04-28T07:34:52.175Z,69.56
2019-04-28T07:37:35.453Z,69.21
2019-04-28T07:40:09.388Z,69.07
2019-04-28T07:42:41.608Z,68.47
2019-04-28T07:45:12.400Z,67.88
2019-04-28T07:47:46.510Z,67.46
2019-04-28T07:50:18.025Z,67.17
2019-04-28T07:53:13.825Z,66.87
2019-04-28T07:55:44.904Z,66.63
2019-04-28T07:58:15.630Z,66.52
2019-04-28T08:01:03.466Z,66.24
2019-04-28T08:03:35.013Z,66.01
2019-04-28T08:06:05.544Z,65.71
2019-04-28T08:08:38.455Z,65.46
2019-04-28T08:11:11.853Z,65.23
2019-04-28T08:13:42.328Z,64.96
2019-04-28T08:16:12.875Z,64.73
2019-04-28T08:18:53.743Z,64.32
2019-04-28T08:21:21.077Z,64.09
2019-04-28T08:23:51.467Z,64.06
2019-04-28T08:26:23.176Z,64.04
2019-04-28T08:28:53.778Z,63.88
2019-04-28T08:31:27.234Z,63.57
2019-04-28T08:34:02.804Z,61.37
2019-04-28T08:36:33.879Z,62.18
2019-04-28T08:39:15.236Z,62.24
2019-04-28T08:41:46.105Z,62.08
2019-04-28T08:44:16.659Z,62.08
2019-04-28T08:46:47.097Z,61.86
2019-04-28T08:49:18.141Z,61.71
2019-04-28T08:51:48.743Z,61.63
2019-04-28T08:54:19.063Z,61.19
2019-04-28T08:56:49.648Z,60.88
2019-04-28T08:59:30.007Z,60.64
2019-04-28T09:02:00.712Z,60.87
2019-04-28T09:04:31.156Z,60.67
2019-04-28T09:07:01.755Z,60.48
2019-04-28T09:09:32.074Z,60.32
2019-04-28T09:12:02.575Z,60.02
2019-04-28T09:14:33.010Z,60.08
2019-04-28T09:17:03.812Z,59.60
2019-04-28T09:19:44.677Z,59.69
2019-04-28T09:22:11.259Z,59.38
2019-04-28T09:24:41.705Z,59.12
2019-04-28T09:27:12.030Z,58.83
2019-04-28T09:29:42.426Z,58.21
2019-04-28T09:32:14.815Z,57.97
2019-04-28T09:34:45.528Z,57.90
2019-04-28T09:37:15.976Z,57.63
2019-04-28T09:39:50.453Z,57.02
2019-04-28T09:42:55.000Z,56.51
2019-04-28T09:45:55.734Z,56.39
2019-04-28T09:48:33.849Z,56.49
2019-04-28T09:51:04.466Z,56.62
2019-04-28T09:53:35.148Z,56.45
2019-04-28T09:56:05.543Z,56.00
2019-04-28T09:58:36.012Z,55.84
2019-04-28T10:01:07.486Z,55.83
2019-04-28T10:03:38.084Z,55.65
2019-04-28T10:06:08.564Z,55.37
2019-04-28T10:08:46.956Z,54.97
2019-04-28T10:11:29.688Z,54.89
2019-04-28T10:13:49.916Z,54.79
2019-04-28T10:16:20.519Z,54.52
2019-04-28T10:18:50.931Z,54.46
2019-04-28T10:21:21.457Z,54.20
2019-04-28T10:23:52.001Z,54.18
2019-04-28T10:26:22.482Z,54.49
2019-04-28T10:29:08.382Z,54.39
2019-04-28T10:31:35.013Z,53.94
2019-04-28T10:34:06.216Z,53.76
2019-04-28T10:36:36.676Z,53.94
2019-04-28T10:39:29.182Z,53.73
2019-04-28T10:41:59.927Z,53.67
2019-04-28T10:44:49.674Z,53.34
2019-04-28T10:47:20.626Z,53.12
2019-04-28T10:49:51.438Z,52.80
2019-04-28T10:52:22.251Z,52.58
2019-04-28T10:54:56.383Z,52.57
2019-04-28T10:57:29.495Z,52.34
2019-04-28T11:00:09.869Z,52.57
2019-04-28T11:02:43.322Z,52.60
2019-04-28T11:05:22.165Z,52.56
2019-04-28T11:07:53.966Z,52.65
2019-04-28T11:10:30.474Z,52.58
2019-04-28T11:13:23.584Z,52.72
2019-04-28T11:15:45.306Z,52.26
2019-04-28T11:18:16.505Z,52.39
2019-04-28T11:20:47.318Z,52.38
2019-04-28T11:23:17.943Z,52.45
2019-04-28T11:25:48.593Z,52.42
2019-04-28T11:28:19.064Z,52.21
2019-04-28T11:30:49.439Z,51.87
2019-04-28T11:33:35.742Z,50.54
2019-04-28T11:36:07.170Z,51.29
2019-04-28T11:38:37.676Z,51.66
2019-04-28T11:41:13.786Z,51.14
2019-04-28T11:43:44.705Z,51.05
2019-04-28T11:46:17.603Z,51.53
2019-04-28T11:48:54.545Z,52.08
2019-04-28T11:51:49.847Z,52.12
2019-04-28T11:54:20.303Z,52.38
2019-04-28T11:56:50.999Z,52.62
2019-04-28T11:59:21.493Z,51.58
2019-04-28T12:01:52.355Z,51.69
2019-04-28T12:04:23.276Z,52.33
2019-04-28T12:07:08.864Z,52.90
2019-04-28T12:10:10.480Z,53.08
2019-04-28T12:13:03.466Z,53.28
2019-04-28T12:15:51.533Z,52.83
2019-04-28T12:18:43.493Z,52.65
2019-04-28T12:21:31.949Z,52.56
2019-04-28T12:24:02.640Z,52.54
2019-04-28T12:26:33.441Z,52.65
2019-04-28T12:29:03.999Z,52.60
2019-04-28T12:31:34.810Z,52.54
2019-04-28T12:34:09.536Z,52.35
2019-04-28T12:36:40.426Z,51.79
2019-04-28T12:39:21.413Z,51.45
2019-04-28T12:41:52.163Z,51.04
2019-04-28T12:44:23.183Z,51.21
2019-04-28T12:46:53.780Z,51.88
2019-04-28T12:49:37.410Z,51.74
2019-04-28T12:52:08.957Z,51.67
2019-04-28T12:54:51.439Z,52.10
2019-04-28T12:57:16.521Z,52.21
2019-04-28T12:59:53.196Z,52.18
2019-04-28T13:02:30.878Z,51.83
2019-04-28T13:05:04.338Z,51.33
2019-04-28T13:07:34.703Z,51.23
2019-04-28T13:10:06.435Z,50.89
2019-04-28T13:12:44.562Z,50.26
2019-04-28T13:15:15.307Z,49.95
2019-04-28T13:17:46.268Z,49.51
2019-04-28T13:20:17.105Z,48.81
2019-04-28T13:22:47.507Z,48.27
2019-04-28T13:25:20.581Z,47.79
2019-04-28T13:27:51.110Z,47.56
2019-04-28T13:30:22.104Z,47.05
2019-04-28T13:33:14.967Z,46.52
2019-04-28T13:35:48.809Z,46.00
2019-04-28T13:38:19.447Z,45.28
2019-04-28T13:40:52.598Z,44.53
2019-04-28T13:43:30.375Z,43.17
2019-04-28T13:46:13.497Z,42.68
2019-04-28T13:48:44.138Z,41.38
2019-04-28T13:51:14.534Z,40.20
2019-04-28T13:53:47.877Z,39.06
2019-04-28T13:56:18.697Z,37.85
2019-04-28T13:58:54.755Z,37.15
2019-04-28T14:01:43.282Z,37.92
2019-04-28T14:04:45.131Z,39.19
2019-04-28T14:07:15.584Z,40.79
2019-04-28T14:09:47.135Z,42.33
2019-04-28T14:12:35.341Z,43.28
2019-04-28T14:15:06.906Z,44.19
2019-04-28T14:17:37.511Z,45.61
2019-04-28T14:20:08.335Z,46.57
2019-04-28T14:22:38.802Z,46.90
2019-04-28T14:25:09.914Z,47.64
2019-04-28T14:27:41.680Z,48.34
2019-04-28T14:30:18.293Z,49.01
2019-04-28T14:32:48.182Z,49.45
2019-04-28T14:35:18.847Z,49.86
2019-04-28T14:37:54.397Z,49.51
2019-04-28T14:40:44.458Z,48.80
2019-04-28T14:43:15.484Z,48.49
2019-04-28T14:46:05.545Z,47.60
2019-04-28T14:48:36.082Z,46.61
2019-04-28T14:51:15.584Z,44.99
2019-04-28T14:53:46.862Z,43.50
2019-04-28T14:56:17.741Z,42.57
2019-04-28T14:58:48.364Z,40.52
2019-04-28T15:01:57.122Z,38.46
2019-04-28T15:04:46.654Z,36.71
2019-04-28T15:07:55.513Z,36.01
2019-04-28T15:10:35.274Z,34.65
2019-04-28T15:13:07.522Z,33.25
2019-04-28T15:15:47.793Z,31.50
2019-04-28T15:18:26.341Z,30.71
2019-04-28T15:21:06.714Z,29.39
2019-04-28T15:23:34.531Z,28.21
2019-04-28T15:26:05.199Z,27.56
2019-04-28T15:28:36.030Z,26.69
2019-04-28T15:31:26.694Z,26.86
2019-04-28T15:34:00.417Z,26.42
2019-04-28T15:36:30.986Z,24.89
2019-04-28T15:39:01.592Z,23.21
2019-04-28T15:41:32.036Z,22.27
2019-04-28T15:44:04.200Z,24.13
2019-04-28T15:46:47.958Z,25.99
2019-04-28T15:49:18.616Z,27.05
2019-04-28T15:51:49.431Z,27.28
2019-04-28T15:54:21.162Z,26.65
2019-04-28T15:56:51.683Z,26.67
2019-04-28T15:59:24.468Z,27.50
2019-04-28T16:01:58.930Z,27.88
2019-04-28T16:04:47.334Z,27.56
2019-04-28T16:07:24.768Z,25.97
2019-04-28T16:09:50.131Z,24.43
2019-04-28T16:12:20.651Z,23.13
2019-04-28T16:14:51.453Z,23.07
2019-04-28T16:17:22.199Z,23.83
2019-04-28T16:19:52.905Z,25.10
2019-04-28T16:22:23.386Z,25.36
2019-04-28T16:25:12.599Z,23.42
2019-04-28T16:27:43.336Z,22.80
2019-04-28T16:30:15.807Z,22.90
2019-04-28T16:32:46.389Z,24.07
2019-04-28T16:35:16.935Z,25.15
2019-04-28T16:37:47.485Z,27.03
2019-04-28T16:40:18.018Z,27.57
2019-04-28T16:43:13.056Z,28.80
2019-04-28T16:45:43.654Z,30.09
2019-04-28T16:48:15.164Z,31.69
2019-04-28T16:50:45.591Z,32.73
2019-04-28T16:53:16.163Z,33.96
2019-04-28T16:56:07.725Z,34.92
2019-04-28T16:59:03.945Z,35.44
2019-04-28T17:01:57.246Z,35.78
2019-04-28T17:04:43.164Z,36.70
2019-04-28T17:07:13.767Z,37.77
2019-04-28T17:09:44.407Z,38.63
2019-04-28T17:12:15.115Z,39.21
2019-04-28T17:14:46.162Z,39.85
2019-04-28T17:17:17.146Z,39.75
2019-04-28T17:20:06.200Z,39.83
2019-04-28T17:22:29.749Z,40.33
2019-04-28T17:25:00.367Z,41.04
2019-04-28T17:27:30.874Z,41.45
2019-04-28T17:30:01.311Z,40.26
2019-04-28T17:32:31.828Z,36.56
2019-04-28T17:35:02.169Z,34.69
2019-04-28T17:37:36.846Z,33.11
2019-04-28T17:40:07.815Z,31.91
2019-04-28T17:42:56.325Z,30.94
2019-04-28T17:45:26.970Z,29.98
2019-04-28T17:48:00.145Z,30.00
2019-04-28T17:50:33.693Z,30.33
2019-04-28T17:53:04.918Z,30.80
2019-04-28T17:55:35.492Z,31.24
2019-04-28T17:58:17.803Z,31.92
2019-04-28T18:01:08.595Z,32.98
2019-04-28T18:03:52.262Z,34.20
2019-04-28T18:06:22.962Z,34.22
2019-04-28T18:09:05.510Z,33.87
2019-04-28T18:11:28.807Z,33.79
2019-04-28T18:13:59.546Z,34.00
2019-04-28T18:17:03.848Z,34.13
2019-04-28T18:19:34.572Z,34.27
2019-04-28T18:22:13.193Z,35.11
2019-04-28T18:24:41.978Z,35.72
2019-04-28T18:27:12.483Z,36.34
2019-04-28T18:29:42.859Z,37.74
2019-04-28T18:32:28.038Z,39.53
2019-04-28T18:35:05.086Z,41.21
2019-04-28T18:38:03.634Z,42.75
2019-04-28T18:40:46.503Z,43.92
2019-04-28T18:43:47.915Z,45.17
2019-04-28T18:46:22.611Z,46.51
2019-04-28T18:48:53.353Z,47.47
2019-04-28T18:51:23.881Z,48.50
2019-04-28T18:54:00.108Z,49.31
2019-04-28T18:56:30.648Z,50.11
2019-04-28T18:59:01.098Z,50.81
2019-04-28T19:01:46.682Z,51.58
2019-04-28T19:04:17.318Z,52.35
2019-04-28T19:06:48.390Z,53.15
2019-04-28T19:09:47.015Z,53.76
2019-04-28T19:12:37.957Z,54.64
2019-04-28T19:15:30.330Z,55.23
2019-04-28T19:18:15.232Z,55.81
2019-04-28T19:20:51.325Z,56.47
2019-04-28T19:23:22.877Z,57.14
2019-04-28T19:25:54.243Z,57.80
2019-04-28T19:28:33.545Z,58.00
2019-04-28T19:31:04.315Z,58.42
2019-04-28T19:33:34.962Z,58.82
2019-04-28T19:36:05.988Z,59.19
2019-04-28T19:38:46.520Z,59.93
2019-04-28T19:41:17.896Z,60.60
2019-04-28T19:43:48.518Z,60.95
2019-04-28T19:46:20.588Z,61.52
2019-04-28T19:48:51.267Z,61.71
2019-04-28T19:51:31.634Z,61.94
2019-04-28T19:53:56.104Z,62.08
2019-04-28T19:56:38.175Z,62.36
2019-04-28T19:59:19.318Z,62.56
2019-04-28T20:01:50.049Z,62.69
2019-04-28T20:04:20.611Z,62.75
2019-04-28T20:06:53.460Z,62.85
2019-04-28T20:09:24.020Z,63.22
2019-04-28T20:11:54.341Z,63.42
2019-04-28T20:14:29.839Z,63.42
2019-04-28T20:17:02.160Z,63.38
2019-04-28T20:19:32.971Z,63.48
2019-04-28T20:22:03.918Z,63.70
2019-04-28T20:24:46.658Z,63.68
2019-04-28T20:27:07.450Z,63.86
2019-04-28T20:29:37.926Z,64.05
2019-04-28T20:32:08.833Z,64.17
2019-04-28T20:34:52.330Z,64.54
2019-04-28T20:37:36.918Z,64.76
2019-04-28T20:40:12.636Z,64.93
2019-04-28T20:42:48.971Z,64.98
2019-04-28T20:45:21.622Z,65.31
2019-04-28T20:48:00.679Z,65.48
2019-04-28T20:50:31.266Z,65.49
2019-04-28T20:53:01.590Z,65.62
2019-04-28T20:55:33.486Z,65.72
2019-04-28T20:58:05.119Z,65.97
2019-04-28T21:00:35.525Z,66.32
2019-04-28T21:03:07.681Z,66.56
2019-04-28T21:05:38.203Z,66.91
2019-04-28T21:08:12.211Z,67.17
2019-04-28T21:10:43.394Z,67.55
2019-04-28T21:13:15.841Z,67.76
2019-04-28T21:15:46.478Z,68.14
2019-04-28T21:18:17.119Z,68.45
2019-04-28T21:20:47.651Z,68.72
2019-04-28T21:23:18.416Z,68.79
2019-04-28T21:25:51.339Z,69.06
2019-04-28T21:28:21.672Z,69.10
2019-04-28T21:30:59.045Z,69.12
2019-04-28T21:33:29.444Z,69.33
2019-04-28T21:35:59.750Z,69.35
2019-04-28T21:38:30.420Z,69.60
2019-04-28T21:41:00.984Z,69.77
2019-04-28T21:43:53.320Z,69.85
2019-04-28T21:46:36.692Z,69.89
2019-04-28T21:49:26.005Z,70.01
2019-04-28T21:51:56.625Z,70.24
2019-04-28T21:54:27.095Z,70.32
2019-04-28T21:56:58.247Z,70.40
2019-04-28T21:59:30.474Z,70.34
2019-04-28T22:02:02.534Z,70.55
2019-04-28T22:04:32.987Z,70.53
2019-04-28T22:07:03.344Z,70.46
2019-04-28T22:09:34.106Z,70.45
2019-04-28T22:12:04.530Z,70.62
2019-04-28T22:14:34.910Z,70.69
2019-04-28T22:17:06.575Z,70.82
2019-04-28T22:19:36.887Z,70.85
2019-04-28T22:22:08.558Z,70.97
2019-04-28T22:24:49.354Z,71.19
2019-04-28T22:27:27.915Z,71.28
2019-04-28T22:29:58.499Z,71.55
2019-04-28T22:32:28.956Z,71.67
2019-04-28T22:34:59.132Z,71.89
2019-04-28T22:37:30.271Z,72.00
2019-04-28T22:40:00.774Z,72.03
2019-04-28T22:42:41.923Z,72.24
2019-04-28T22:45:12.670Z,72.31
2019-04-28T22:47:43.168Z,72.35
2019-04-28T22:50:36.635Z,72.29
2019-04-28T22:53:07.373Z,72.29
2019-04-28T22:55:50.354Z,72.26
2019-04-28T22:58:39.328Z,72.39
2019-04-28T23:01:24.936Z,72.59
2019-04-28T23:04:10.047Z,72.65
2019-04-28T23:06:42.728Z,72.66
2019-04-28T23:09:17.667Z,72.81
2019-04-28T23:11:54.437Z,72.75
2019-04-28T23:14:26.537Z,72.90
2019-04-28T23:17:02.612Z,72.91
2019-04-28T23:19:41.303Z,72.95
2019-04-28T23:22:20.426Z,72.95
2019-04-28T23:24:55.014Z,72.90
2019-04-28T23:27:27.497Z,72.78
2019-04-28T23:30:00.654Z,72.54
2019-04-28T23:32:35.852Z,72.74
2019-04-28T23:35:12.744Z,72.67
2019-04-28T23:37:49.550Z,72.76
2019-04-28T23:40:28.644Z,72.57
2019-04-28T23:43:11.498Z,72.57
2019-04-28T23:46:05.088Z,72.51
2019-04-28T23:48:27.343Z,72.32
2019-04-28T23:51:18.347Z,72.29
2019-04-28T23:54:01.941Z,72.51
2019-04-28T23:56:39.923Z,72.40
2019-04-28T23:59:11.210Z,72.53
